This is the latest recevied weather packets stored in our database for station/object KY4LEX. If no packets are shown the sender has not sent any weather packets the latest 10 day(s).
| Time | Temp. | Humidity | Pressure | Rain* | Wind** | Luminosity | Snow |
|---|---|---|---|---|---|---|---|
| 1778092901 | 17.22° C | 64% | 1018.1 hPa | 0 mm | - | 195 W/m² | - |
| 1778092598 | 17.22° C | 62% | 1017.5 hPa | 0 mm | - | 181 W/m² | - |
| 1778092293 | 17.22° C | 62% | 1017.7 hPa | 0 mm | - | 242 W/m² | - |
| 1778091992 | 17.22° C | 61% | 1017.7 hPa | 0 mm | - | 295 W/m² | - |
| 1778091688 | 16.67° C | 63% | 1017.7 hPa | 0 mm | - | 258 W/m² | - |
| 1778091386 | 16.67° C | 63% | 1017.8 hPa | 0 mm | - | 225 W/m² | - |
| 1778091083 | 17.22° C | 61% | 1017.8 hPa | 0 mm | - | 232 W/m² | - |
| 1778090780 | 16.67° C | 62% | 1018 hPa | 0 mm | - | 246 W/m² | - |
| 1778090476 | 17.22° C | 62% | 1017.7 hPa | 0 mm | - | 284 W/m² | - |
| 1778090173 | 16.67° C | 63% | 1017.5 hPa | 0 mm | - | 244 W/m² | - |
| 1778089869 | 16.67° C | 64% | 1017.7 hPa | 0 mm | - | 249 W/m² | - |
| 1778089568 | 16.67° C | 63% | 1018 hPa | 0 mm | - | 289 W/m² | - |
| 1778089263 | 17.22° C | 60% | 1018 hPa | 0 mm | - | 311 W/m² | - |
| 1778088961 | 17.78° C | 61% | 1017.5 hPa | 0 mm | - | 339 W/m² | - |
| 1778088658 | 16.67° C | 64% | 1017.6 hPa | 0 mm | - | 422 W/m² | - |
| 1778088356 | 17.22° C | 63% | 1017.7 hPa | 0 mm | - | 328 W/m² | - |
| 1778088051 | 17.78° C | 59% | 1017.5 hPa | 0 mm | - | 748 W/m² | - |
| 1778087749 | 16.67° C | 62% | 1017.8 hPa | 0 mm | - | 434 W/m² | - |
| 1778087447 | 16.67° C | 65% | 1018 hPa | 0 mm | - | 357 W/m² | - |
| 1778087144 | 16.11° C | 66% | 1017.7 hPa | 0 mm | - | 217 W/m² | - |
| 1778086841 | 17.22° C | 62% | 1018.2 hPa | 0 mm | - | 230 W/m² | - |
| 1778086540 | 16.67° C | 65% | 1018.1 hPa | 0 mm | - | 666 W/m² | - |
| 1778086236 | 16.11° C | 66% | 1018.2 hPa | 0 mm | - | 392 W/m² | - |
| 1778085933 | 16.67° C | 64% | 1017.8 hPa | 0 mm | - | 705 W/m² | - |
| 1778085630 | 17.22° C | 64% | 1017.7 hPa | 0 mm | - | 314 W/m² | - |
* Rain latest hour (hover to see other rain measurements)
** Current wind speed in m/s (hover to see current wind gust speed)